Terminal Aerodrome Forecast
Issued by NWS

Home | Current Version | Previous Version | Text Only | Print | Product List | Glossary On
Versions: 1 2 3 4 5 6 7 8 9 10 11 12
700
FTUS46 KSEW 171720
TAFBFI
TAF
KBFI 171720Z 1718/1818 18008KT P6SM -RA OVC050
     FM180000 16012KT P6SM -RA OVC025
     FM180600 18012G22KT 5SM RA BR OVC015
     FM181600 18012KT P6SM -RA BKN020 OVC040=

USA.gov is the U.S. government's official web portal to all federal, state and local government web resources and services.